Burgh le Marsh, United Kingdom
Current Conditions -  °F | °C
As of 2:50 AM on Thursday 27 Nov 2014 (Local Time) from EGXC Reporting Station
Drizzle Drizzle  
Wind Chill: 46°   Ceiling: 200
Heat Index: 46°   Visibility: 0.12mi
Dew Point: 46°   Wind: 1mph
Humidity: 100%   Direction: 140°SE
Pressure: 29.68"   Gusts: NA
Location:  53.16°N, 0.24°E
Report Text: EGXC 270250Z 14001KT 0200 -DZ OVC002 08/08 Q1005 RED
Loading
Personal Weather Stations






























Interactive Weather Map New forecast layout! Learn more

10-Day Weather Forecast

Advertisements
Track Severe Weather on mobile